Time;durP1;ratioP1;P1;durP2;ratioP2;P2;SDS_P1;SDS_P2;PMS_P1;PMS_P2;Temp;Humidity;BMP_temperature;BMP_pressure;BME280_temperature;BME280_humidity;BME280_pressure;Samples;Min_cycle;Max_cycle;Signal;HPM_P1;HPM_P2
2023/07/29 00:00:20;;;;;;;1.10;1.00;;;19.70;74.80;;;;;;5043777;28;20531;-60
2023/07/29 00:02:46;;;;;;;4.80;1.00;;;19.70;74.70;;;;;;5044066;28;20690;-61
2023/07/29 00:05:11;;;;;;;1.30;0.88;;;19.70;74.70;;;;;;5046568;28;20036;-61
2023/07/29 00:07:37;;;;;;;1.20;0.80;;;19.70;74.70;;;;;;5041749;28;20028;-60
2023/07/29 00:10:03;;;;;;;4.80;1.00;;;19.80;74.90;;;;;;5022920;28;20055;-60
2023/07/29 00:12:29;;;;;;;3.10;0.95;;;19.80;74.90;;;;;;5044573;28;20036;-59
2023/07/29 00:14:55;;;;;;;3.17;1.10;;;19.80;74.90;;;;;;5048350;28;20025;-59
2023/07/29 00:17:20;;;;;;;2.83;1.00;;;19.80;74.80;;;;;;5043541;28;20043;-59
2023/07/29 00:19:46;;;;;;;3.80;1.25;;;19.80;74.60;;;;;;5038479;28;20091;-60
2023/07/29 00:22:12;;;;;;;2.63;1.20;;;19.80;74.50;;;;;;5041974;28;20083;-59
2023/07/29 00:24:39;;;;;;;2.13;1.17;;;19.80;74.40;;;;;;5046901;28;20025;-59
2023/07/29 00:27:05;;;;;;;2.38;1.00;;;19.80;74.40;;;;;;5037001;28;20675;-60
2023/07/29 00:29:31;;;;;;;1.98;1.05;;;19.80;74.30;;;;;;5047705;28;20036;-61
2023/07/29 00:31:56;;;;;;;1.08;0.82;;;19.80;74.20;;;;;;5041385;28;20032;-59
2023/07/29 00:34:22;;;;;;;1.55;1.10;;;19.80;74.20;;;;;;5043347;28;20460;-59
2023/07/29 00:36:48;;;;;;;1.95;1.02;;;19.80;74.10;;;;;;5041450;28;20033;-61
2023/07/29 00:39:14;;;;;;;2.28;1.15;;;19.70;74.00;;;;;;5042049;28;20057;-59
2023/07/29 00:41:40;;;;;;;1.52;1.15;;;19.70;74.10;;;;;;5042511;28;20060;-61
2023/07/29 00:44:06;;;;;;;1.95;1.15;;;19.70;74.00;;;;;;5043641;28;20391;-61
2023/07/29 00:46:35;;;;;;;2.40;1.20;;;19.60;74.00;;;;;;5041411;28;20029;-60
2023/07/29 00:49:01;;;;;;;8.95;0.98;;;19.60;74.20;;;;;;5041941;28;20029;-60
2023/07/29 00:51:27;;;;;;;2.63;0.90;;;19.60;74.10;;;;;;5036226;28;20033;-60
2023/07/29 00:53:53;;;;;;;1.75;1.05;;;19.60;74.20;;;;;;5040093;28;20029;-60
2023/07/29 00:56:18;;;;;;;3.47;1.15;;;19.50;74.20;;;;;;5019265;28;20049;-59
2023/07/29 00:58:44;;;;;;;2.83;0.90;;;19.50;74.20;;;;;;5038980;28;20036;-59
2023/07/29 01:01:10;;;;;;;5.03;1.42;;;19.50;74.20;;;;;;5034802;28;20152;-60
2023/07/29 01:03:35;;;;;;;2.92;1.10;;;19.40;74.20;;;;;;5043386;28;20122;-60
2023/07/29 01:06:26;;;;;;;2.30;0.90;;;19.40;74.30;;;;;;5043294;28;20052;-60
2023/07/29 01:09:17;;;;;;;2.10;1.10;;;19.40;74.80;;;;;;5045061;28;20021;-60
2023/07/29 01:12:03;;;;;;;4.47;1.00;;;19.40;75.00;;;;;;5037284;28;20435;-61
2023/07/29 01:14:47;;;;;;;4.28;1.05;;;19.40;74.90;;;;;;5041608;28;20044;-60
2023/07/29 01:17:29;;;;;;;5.32;1.20;;;19.40;74.90;;;;;;4930414;28;20041;-60
2023/07/29 01:20:09;;;;;;;9.93;1.30;;;19.30;74.90;;;;;;5038535;28;20037;-60
2023/07/29 01:22:36;;;;;;;2.28;1.30;;;19.30;75.00;;;;;;5041097;28;20126;-61
2023/07/29 01:25:03;;;;;;;2.95;1.10;;;19.30;74.60;;;;;;5043907;28;20048;-60
2023/07/29 01:27:29;;;;;;;3.38;1.08;;;19.30;74.80;;;;;;5046018;28;20036;-59
2023/07/29 01:29:55;;;;;;;6.00;1.13;;;19.30;74.80;;;;;;5040324;28;20030;-59
2023/07/29 01:32:43;;;;;;;2.10;1.05;;;19.30;74.90;;;;;;5042694;28;20029;-59
2023/07/29 01:35:26;;;;;;;1.65;1.15;;;19.30;75.60;;;;;;5032038;28;20104;-59
2023/07/29 01:37:56;;;;;;;4.43;1.00;;;19.30;75.70;;;;;;5036736;28;20053;-59
2023/07/29 01:40:26;;;;;;;4.38;1.25;;;19.30;75.20;;;;;;5036352;28;20100;-61
2023/07/29 01:42:52;;;;;;;5.43;1.13;;;19.20;75.00;;;;;;5039475;28;20438;-60
2023/07/29 01:45:17;;;;;;;2.47;1.40;;;19.30;75.10;;;;;;5046445;28;20029;-60
2023/07/29 01:47:43;;;;;;;2.03;1.10;;;19.30;75.20;;;;;;5042938;28;20372;-61
2023/07/29 01:50:09;;;;;;;1.63;1.20;;;19.30;75.20;;;;;;5046871;28;20365;-60
2023/07/29 01:52:35;;;;;;;2.45;1.30;;;19.20;75.10;;;;;;5039234;28;20118;-59
2023/07/29 01:55:02;;;;;;;3.97;1.35;;;19.20;75.00;;;;;;5039215;28;20032;-60
2023/07/29 01:57:27;;;;;;;1.48;1.10;;;19.30;75.10;;;;;;5033962;28;20025;-58
2023/07/29 01:59:53;;;;;;;1.73;1.02;;;19.20;75.10;;;;;;5043706;28;20021;-61
2023/07/29 02:02:19;;;;;;;5.47;1.00;;;19.20;75.10;;;;;;5020785;28;20044;-59
2023/07/29 02:04:45;;;;;;;4.35;1.50;;;19.20;75.10;;;;;;5041502;28;20449;-60
2023/07/29 02:07:10;;;;;;;3.10;1.30;;;19.20;75.10;;;;;;5044502;28;20021;-59
2023/07/29 02:09:36;;;;;;;7.30;1.20;;;19.20;75.10;;;;;;5042070;28;20036;-61
2023/07/29 02:12:02;;;;;;;4.35;1.15;;;19.20;75.10;;;;;;5021950;28;20021;-60
2023/07/29 02:14:28;;;;;;;3.95;1.10;;;19.20;75.20;;;;;;5045486;28;20056;-60
2023/07/29 02:16:54;;;;;;;3.60;0.90;;;19.20;75.20;;;;;;4931871;28;21085;-60
2023/07/29 02:19:19;;;;;;;4.90;1.35;;;19.20;75.30;;;;;;5042750;28;20104;-60
2023/07/29 02:21:45;;;;;;;3.83;1.40;;;19.20;75.30;;;;;;5034981;28;20029;-60
2023/07/29 02:24:10;;;;;;;4.28;1.10;;;19.10;75.40;;;;;;5038955;28;20041;-60
2023/07/29 02:26:36;;;;;;;5.28;1.20;;;19.20;75.50;;;;;;5039522;28;20033;-59
2023/07/29 02:29:02;;;;;;;7.28;1.30;;;19.10;75.40;;;;;;5042321;28;20025;-60
2023/07/29 02:31:28;;;;;;;4.55;1.58;;;19.10;75.40;;;;;;5039960;28;20036;-60
2023/07/29 02:33:53;;;;;;;2.70;1.33;;;19.10;75.50;;;;;;5042032;28;20771;-59
2023/07/29 02:36:19;;;;;;;4.20;1.50;;;19.10;75.60;;;;;;5037999;28;20029;-60
2023/07/29 02:38:45;;;;;;;6.82;1.27;;;19.10;75.70;;;;;;5046395;28;20028;-60
2023/07/29 02:41:15;;;;;;;2.25;1.17;;;19.10;75.80;;;;;;5043449;28;20067;-59
2023/07/29 02:43:43;;;;;;;3.88;1.17;;;19.10;75.80;;;;;;5044294;28;20036;-60
2023/07/29 02:46:08;;;;;;;2.13;1.27;;;19.10;76.00;;;;;;5025029;28;20021;-60
2023/07/29 02:48:34;;;;;;;2.17;1.25;;;19.10;76.00;;;;;;5046582;28;20029;-60
2023/07/29 02:51:00;;;;;;;8.48;1.20;;;19.10;76.00;;;;;;5046884;28;20029;-60
2023/07/29 02:53:25;;;;;;;5.07;1.35;;;19.10;76.00;;;;;;5040262;28;20025;-60
2023/07/29 02:55:51;;;;;;;3.20;1.45;;;19.10;75.90;;;;;;5045318;28;20114;-61
2023/07/29 02:58:17;;;;;;;3.38;1.50;;;19.10;75.90;;;;;;5045631;28;20063;-60
2023/07/29 03:00:43;;;;;;;2.90;1.35;;;19.10;76.00;;;;;;5024470;28;20026;-61
2023/07/29 03:03:09;;;;;;;4.82;1.60;;;19.10;75.80;;;;;;5041386;28;20025;-61
2023/07/29 03:05:35;;;;;;;2.42;1.60;;;19.10;75.80;;;;;;5039574;28;20029;-60
2023/07/29 03:08:01;;;;;;;6.13;1.40;;;19.10;75.80;;;;;;5044046;28;20050;-59
2023/07/29 03:10:27;;;;;;;2.60;1.67;;;19.10;75.70;;;;;;5046862;28;20126;-59
2023/07/29 03:12:56;;;;;;;2.58;2.05;;;19.10;75.70;;;;;;5044234;28;20029;-59
2023/07/29 03:15:25;;;;;;;7.78;1.38;;;19.00;75.90;;;;;;5046103;28;20037;-59
2023/07/29 03:17:51;;;;;;;1.95;1.70;;;19.10;75.90;;;;;;5044290;28;20475;-60
2023/07/29 03:20:17;;;;;;;3.10;1.77;;;19.00;75.70;;;;;;5040061;28;20020;-60
2023/07/29 03:22:44;;;;;;;2.00;1.80;;;19.00;75.70;;;;;;5044045;28;20387;-59
2023/07/29 03:25:10;;;;;;;2.78;1.85;;;19.00;75.70;;;;;;5044514;28;20080;-59
2023/07/29 03:27:36;;;;;;;3.35;1.70;;;18.90;75.60;;;;;;5040387;28;20443;-59
2023/07/29 03:30:07;;;;;;;6.28;1.70;;;18.90;75.70;;;;;;5042521;28;20021;-61
2023/07/29 03:32:32;;;;;;;4.68;1.70;;;18.90;75.70;;;;;;5045579;28;20048;-61
2023/07/29 03:34:58;;;;;;;2.53;1.50;;;18.80;75.70;;;;;;5040033;28;20033;-59
2023/07/29 03:37:24;;;;;;;6.28;1.65;;;18.80;75.70;;;;;;5039315;28;20021;-60
2023/07/29 03:39:51;;;;;;;3.78;1.50;;;18.80;75.70;;;;;;5040118;28;20482;-59
2023/07/29 03:42:17;;;;;;;2.75;1.60;;;18.80;75.60;;;;;;5045034;28;20506;-59
2023/07/29 03:44:43;;;;;;;5.10;1.80;;;18.80;75.60;;;;;;5047069;28;20021;-59
2023/07/29 03:47:09;;;;;;;7.00;1.90;;;18.70;75.60;;;;;;5045302;28;20029;-58
2023/07/29 03:49:34;;;;;;;4.03;1.70;;;18.70;75.70;;;;;;5044819;28;20040;-60
2023/07/29 03:52:00;;;;;;;3.00;1.75;;;18.70;75.80;;;;;;5039537;28;20091;-60
2023/07/29 03:54:26;;;;;;;5.13;2.22;;;18.70;76.00;;;;;;5044811;28;20021;-60
2023/07/29 03:56:51;;;;;;;4.05;2.22;;;18.70;76.10;;;;;;5044605;28;20052;-59
2023/07/29 03:59:17;;;;;;;10.98;2.70;;;18.70;77.00;;;;;;5048048;28;20033;-58
2023/07/29 04:01:43;;;;;;;11.95;3.45;;;18.70;76.50;;;;;;5041680;28;20024;-59
2023/07/29 04:04:09;;;;;;;9.30;4.50;;;18.60;76.60;;;;;;5045891;28;20028;-61
2023/07/29 04:06:34;;;;;;;13.75;3.95;;;18.70;76.70;;;;;;5044268;28;20491;-59
2023/07/29 04:09:00;;;;;;;15.10;4.15;;;18.70;76.90;;;;;;5040872;28;20034;-59
2023/07/29 04:11:26;;;;;;;19.73;4.70;;;18.70;77.00;;;;;;5050005;28;20025;-60
2023/07/29 04:13:52;;;;;;;10.23;4.93;;;18.60;77.00;;;;;;5039740;28;20545;-59
2023/07/29 04:16:17;;;;;;;13.88;4.60;;;18.60;77.30;;;;;;5038853;28;20029;-59
2023/07/29 04:18:43;;;;;;;11.73;4.95;;;18.60;77.50;;;;;;5047610;28;20029;-59
2023/07/29 04:21:09;;;;;;;17.27;4.60;;;18.70;77.90;;;;;;5046295;28;20464;-61
2023/07/29 04:23:35;;;;;;;29.40;4.95;;;18.70;77.90;;;;;;5042643;28;20534;-60
2023/07/29 04:26:00;;;;;;;35.55;4.70;;;18.70;78.00;;;;;;5027815;28;20190;-61
2023/07/29 04:28:26;;;;;;;16.60;4.90;;;18.70;77.80;;;;;;5044886;28;20475;-60
2023/07/29 04:30:52;;;;;;;20.38;5.38;;;18.70;78.00;;;;;;5044581;28;20419;-60
2023/07/29 04:33:17;;;;;;;26.80;5.07;;;18.80;78.10;;;;;;5044999;28;20509;-60
2023/07/29 04:35:43;;;;;;;16.15;4.55;;;18.70;77.80;;;;;;5047113;28;20582;-59
2023/07/29 04:38:09;;;;;;;15.07;4.65;;;18.70;77.80;;;;;;5035510;28;20037;-60
2023/07/29 04:40:34;;;;;;;23.75;5.30;;;18.70;78.00;;;;;;5038743;28;20025;-60
2023/07/29 04:43:01;;;;;;;10.38;5.13;;;18.70;78.00;;;;;;5038030;28;20404;-60
2023/07/29 04:45:30;;;;;;;16.42;4.95;;;18.70;78.20;;;;;;5037954;28;20075;-59
2023/07/29 04:47:57;;;;;;;11.30;5.22;;;18.80;78.70;;;;;;5035068;28;20476;-60
2023/07/29 04:50:23;;;;;;;17.75;5.90;;;18.80;78.40;;;;;;5037372;28;20040;-59
2023/07/29 04:52:49;;;;;;;10.45;5.38;;;18.80;78.40;;;;;;5042938;28;20021;-60
2023/07/29 04:55:14;;;;;;;12.93;6.03;;;18.80;78.30;;;;;;5043483;28;20045;-59
2023/07/29 04:57:40;;;;;;;12.27;5.65;;;18.80;78.30;;;;;;5011203;28;20033;-60
2023/07/29 05:00:06;;;;;;;13.32;6.00;;;18.80;78.20;;;;;;5029964;28;20037;-59
2023/07/29 05:02:32;;;;;;;10.15;5.55;;;18.80;78.10;;;;;;5023769;28;20042;-59
2023/07/29 05:04:58;;;;;;;17.65;5.45;;;18.80;78.00;;;;;;5020181;28;20032;-61
2023/07/29 05:07:23;;;;;;;8.25;5.38;;;18.80;78.20;;;;;;5016591;28;20091;-59
2023/07/29 05:09:49;;;;;;;10.55;5.10;;;18.80;78.30;;;;;;5019575;28;20025;-59
2023/07/29 05:12:15;;;;;;;10.60;5.03;;;18.90;78.50;;;;;;5029051;28;20480;-59
2023/07/29 05:14:40;;;;;;;6.97;4.55;;;18.90;78.60;;;;;;5028214;28;20448;-61
2023/07/29 05:17:06;;;;;;;6.55;4.72;;;18.90;78.40;;;;;;4933373;28;20030;-59
2023/07/29 05:19:31;;;;;;;8.02;4.78;;;18.90;78.40;;;;;;5023148;28;20018;-59
2023/07/29 05:21:58;;;;;;;9.55;5.22;;;18.90;78.40;;;;;;5025258;28;20035;-59
2023/07/29 05:24:24;;;;;;;7.57;4.97;;;19.00;78.50;;;;;;5020617;28;20036;-59
2023/07/29 05:26:50;;;;;;;6.63;4.53;;;19.00;78.50;;;;;;5019272;28;20472;-61
2023/07/29 05:29:15;;;;;;;9.23;4.72;;;19.00;78.60;;;;;;5019584;28;20076;-60
2023/07/29 05:31:41;;;;;;;6.22;4.70;;;19.00;78.70;;;;;;5022937;28;20106;-60
2023/07/29 05:34:07;;;;;;;6.13;4.40;;;19.10;78.80;;;;;;5024422;28;20384;-59
2023/07/29 05:36:32;;;;;;;5.68;4.80;;;19.10;78.80;;;;;;5014844;28;20033;-59
2023/07/29 05:38:58;;;;;;;9.18;4.97;;;19.10;78.70;;;;;;5030131;28;20500;-59
2023/07/29 05:41:25;;;;;;;14.80;5.07;;;19.20;78.70;;;;;;5004028;28;20452;-60
2023/07/29 05:43:51;;;;;;;5.50;4.70;;;19.20;78.90;;;;;;5019730;28;20047;-60
2023/07/29 05:46:17;;;;;;;7.25;4.40;;;19.30;79.00;;;;;;4999188;28;20105;-60
2023/07/29 05:48:42;;;;;;;5.88;4.60;;;19.30;78.90;;;;;;5023472;28;20036;-60
2023/07/29 05:51:08;;;;;;;6.97;5.00;;;19.40;78.90;;;;;;5021187;28;20030;-60
2023/07/29 05:53:34;;;;;;;9.02;4.63;;;19.40;79.00;;;;;;5017237;28;20095;-60
2023/07/29 05:55:59;;;;;;;7.35;4.60;;;19.40;78.70;;;;;;5017076;28;20512;-59
2023/07/29 05:58:25;;;;;;;8.02;4.28;;;19.50;78.40;;;;;;5038833;28;20021;-60
2023/07/29 06:00:51;;;;;;;6.15;4.70;;;19.50;78.30;;;;;;5026326;28;20025;-59
2023/07/29 06:03:17;;;;;;;4.50;4.00;;;19.60;78.60;;;;;;5041456;28;20124;-60
2023/07/29 06:05:42;;;;;;;6.93;4.18;;;19.60;78.60;;;;;;5040806;28;20493;-59
2023/07/29 06:08:08;;;;;;;7.03;4.50;;;19.60;78.40;;;;;;5042575;28;20025;-59
2023/07/29 06:10:34;;;;;;;6.13;3.92;;;19.70;78.20;;;;;;5039288;28;20096;-59
2023/07/29 06:13:00;;;;;;;5.10;4.22;;;19.70;78.10;;;;;;5038645;28;20029;-60
2023/07/29 06:15:25;;;;;;;5.95;4.35;;;19.80;78.20;;;;;;5044588;28;20029;-60
2023/07/29 06:17:51;;;;;;;6.70;4.45;;;19.80;78.00;;;;;;5040817;28;20534;-60
2023/07/29 06:20:17;;;;;;;6.95;3.80;;;19.80;77.90;;;;;;5041422;28;20033;-60
2023/07/29 06:22:43;;;;;;;6.15;4.55;;;19.90;77.80;;;;;;5046763;28;20034;-62
2023/07/29 06:25:08;;;;;;;7.43;4.25;;;19.80;77.80;;;;;;5037039;28;20033;-62
2023/07/29 06:27:34;;;;;;;5.20;2.80;;;19.80;77.80;;;;;;5046206;28;20021;-61
2023/07/29 06:30:00;;;;;;;6.10;2.30;;;19.80;78.00;;;;;;5040182;28;20118;-62
2023/07/29 06:32:26;;;;;;;5.25;1.98;;;19.80;78.10;;;;;;5042661;28;20021;-61
2023/07/29 06:34:54;;;;;;;5.35;1.83;;;19.80;78.30;;;;;;5035518;28;20032;-61
2023/07/29 06:37:20;;;;;;;3.47;1.20;;;19.80;78.40;;;;;;5038099;28;20029;-60
2023/07/29 06:39:46;;;;;;;1.48;1.20;;;19.80;78.50;;;;;;5040331;28;20415;-61
2023/07/29 06:42:11;;;;;;;2.35;1.27;;;19.80;78.70;;;;;;5048041;28;20033;-62
2023/07/29 06:44:37;;;;;;;5.60;1.50;;;19.80;79.00;;;;;;5033641;28;20033;-61
2023/07/29 06:47:03;;;;;;;5.15;1.67;;;19.90;79.40;;;;;;5041213;28;20036;-62
2023/07/29 06:49:28;;;;;;;3.47;1.27;;;19.90;80.00;;;;;;5037782;28;20029;-62
2023/07/29 06:51:54;;;;;;;3.83;1.58;;;20.00;80.90;;;;;;5044511;28;20024;-61
2023/07/29 06:54:25;;;;;;;2.22;1.58;;;20.10;81.60;;;;;;5038153;28;20025;-62
2023/07/29 06:56:51;;;;;;;4.53;1.98;;;20.30;82.50;;;;;;5040351;28;20045;-61
2023/07/29 06:59:17;;;;;;;3.08;1.83;;;20.50;81.80;;;;;;5039876;28;20021;-62
2023/07/29 07:01:42;;;;;;;3.72;1.98;;;20.70;81.80;;;;;;5039043;28;20052;-61
2023/07/29 07:04:08;;;;;;;4.45;2.08;;;20.80;81.40;;;;;;5039118;28;20404;-61
2023/07/29 07:06:34;;;;;;;3.42;1.98;;;21.00;81.10;;;;;;5041376;28;20113;-61
2023/07/29 07:08:59;;;;;;;3.55;2.33;;;21.20;81.10;;;;;;5040501;28;20203;-60
2023/07/29 07:11:25;;;;;;;5.15;2.22;;;21.30;80.60;;;;;;5040175;28;20029;-61
2023/07/29 07:13:51;;;;;;;4.15;2.17;;;21.40;80.30;;;;;;5036514;28;20091;-61
2023/07/29 07:16:16;;;;;;;2.88;2.50;;;21.60;80.00;;;;;;4981284;28;20025;-60
2023/07/29 07:18:42;;;;;;;3.53;2.40;;;21.70;79.50;;;;;;5044794;28;20028;-61
2023/07/29 07:21:08;;;;;;;4.60;2.22;;;21.80;79.20;;;;;;5044871;28;20107;-61
2023/07/29 07:23:33;;;;;;;6.32;2.90;;;21.90;78.90;;;;;;5040151;28;20040;-61
2023/07/29 07:25:59;;;;;;;4.78;2.75;;;22.00;78.50;;;;;;5037440;28;20480;-63
2023/07/29 07:28:25;;;;;;;6.38;2.47;;;22.10;78.50;;;;;;5043211;28;20478;-61
2023/07/29 07:30:51;;;;;;;5.88;2.78;;;22.20;78.20;;;;;;5042972;28;20720;-61
2023/07/29 07:33:16;;;;;;;3.42;2.70;;;22.30;78.20;;;;;;5047453;28;20029;-62
2023/07/29 07:35:42;;;;;;;4.32;2.67;;;22.40;77.80;;;;;;5043097;28;20036;-61
2023/07/29 07:38:09;;;;;;;4.03;2.63;;;22.50;77.70;;;;;;5043461;28;20029;-61
2023/07/29 07:40:35;;;;;;;3.42;2.65;;;22.60;77.70;;;;;;5046689;28;20514;-61
2023/07/29 07:43:01;;;;;;;4.45;2.90;;;22.70;77.30;;;;;;5041727;28;20075;-61
2023/07/29 07:45:27;;;;;;;4.28;3.20;;;22.80;77.40;;;;;;5039140;28;20029;-61
2023/07/29 07:47:54;;;;;;;4.10;2.78;;;22.90;77.10;;;;;;5041869;28;20029;-61
2023/07/29 07:50:20;;;;;;;2.80;2.50;;;23.10;76.90;;;;;;5040852;28;20029;-62
2023/07/29 07:52:46;;;;;;;3.85;2.58;;;23.20;76.30;;;;;;5041539;28;20404;-61
2023/07/29 07:55:11;;;;;;;6.28;3.00;;;23.30;75.70;;;;;;5046136;28;20044;-61
2023/07/29 07:57:37;;;;;;;4.22;2.38;;;23.40;75.00;;;;;;5045650;28;20021;-61
2023/07/29 08:00:04;;;;;;;2.85;2.40;;;23.40;74.10;;;;;;5043665;28;20037;-61
2023/07/29 08:02:30;;;;;;;5.78;2.42;;;23.40;73.90;;;;;;5043431;28;20038;-61
2023/07/29 08:04:55;;;;;;;3.78;2.30;;;23.40;73.30;;;;;;5039830;28;20047;-61
2023/07/29 08:07:21;;;;;;;2.88;2.50;;;23.40;73.30;;;;;;5045654;28;20017;-62
2023/07/29 08:09:47;;;;;;;3.58;2.40;;;23.40;73.30;;;;;;5043911;28;20052;-60
2023/07/29 08:12:12;;;;;;;3.40;2.40;;;23.30;73.20;;;;;;5044769;28;20102;-61
2023/07/29 08:14:38;;;;;;;4.38;2.30;;;23.30;73.20;;;;;;5047898;28;20032;-62
2023/07/29 08:17:04;;;;;;;7.45;2.30;;;23.20;73.30;;;;;;5000333;28;20025;-65
2023/07/29 08:19:30;;;;;;;1.88;1.55;;;23.10;73.60;;;;;;5045184;28;20025;-62
2023/07/29 08:21:56;;;;;;;1.13;0.90;;;23.00;73.20;;;;;;5042541;28;20028;-62
2023/07/29 08:24:21;;;;;;;1.05;0.98;;;22.90;71.40;;;;;;5041348;28;20056;-63
2023/07/29 08:26:47;;;;;;;2.20;1.10;;;22.80;70.10;;;;;;5037293;28;20033;-62
2023/07/29 08:29:13;;;;;;;2.78;0.95;;;22.60;70.20;;;;;;5036537;28;20044;-61
2023/07/29 08:31:39;;;;;;;1.20;1.10;;;22.60;70.60;;;;;;5041745;28;20028;-61
2023/07/29 08:34:05;;;;;;;1.30;0.80;;;22.50;70.80;;;;;;5044766;28;20933;-61
2023/07/29 08:36:30;;;;;;;1.48;0.95;;;22.50;71.00;;;;;;5026331;28;20067;-61
2023/07/29 08:38:56;;;;;;;2.50;0.98;;;22.50;71.90;;;;;;5036724;28;20030;-61
2023/07/29 08:41:27;;;;;;;2.25;0.70;;;22.50;72.60;;;;;;5018348;28;20068;-61
2023/07/29 08:44:11;;;;;;;1.55;0.85;;;22.60;72.80;;;;;;5044748;28;20539;-61
2023/07/29 08:46:39;;;;;;;0.70;0.70;;;22.70;73.30;;;;;;5044855;28;20035;-62
2023/07/29 08:49:05;;;;;;;2.05;0.80;;;22.80;73.50;;;;;;5037416;28;20033;-62
2023/07/29 08:51:32;;;;;;;2.00;0.95;;;22.90;72.80;;;;;;5035957;28;20017;-62
2023/07/29 08:53:59;;;;;;;1.33;0.80;;;23.00;73.00;;;;;;5038867;28;20052;-62
2023/07/29 08:56:25;;;;;;;1.05;0.80;;;23.10;72.50;;;;;;5037555;28;20131;-62
2023/07/29 08:58:52;;;;;;;1.48;0.75;;;23.20;72.10;;;;;;5043150;28;20059;-62
2023/07/29 09:01:17;;;;;;;1.83;0.80;;;23.20;71.10;;;;;;5038576;28;20025;-62
2023/07/29 09:03:43;;;;;;;1.15;0.82;;;23.30;71.20;;;;;;5042252;28;20115;-62
2023/07/29 09:06:09;;;;;;;1.30;1.00;;;23.30;71.40;;;;;;5048358;28;20032;-62
2023/07/29 09:08:35;;;;;;;0.75;0.75;;;23.30;71.60;;;;;;5046858;28;20024;-62
2023/07/29 09:11:01;;;;;;;1.00;0.80;;;23.30;71.60;;;;;;5037076;28;20032;-62
2023/07/29 09:13:26;;;;;;;1.85;0.85;;;23.30;71.70;;;;;;5038581;28;20511;-62
2023/07/29 09:15:57;;;;;;;1.63;1.10;;;23.30;72.10;;;;;;5045479;28;20029;-62
2023/07/29 09:18:25;;;;;;;1.60;0.73;;;23.40;72.30;;;;;;5045475;28;20104;-62
2023/07/29 09:20:52;;;;;;;1.45;0.77;;;23.40;72.30;;;;;;5039712;28;20027;-62
2023/07/29 09:23:17;;;;;;;3.50;1.00;;;23.50;72.00;;;;;;5042728;28;20630;-62
2023/07/29 09:25:45;;;;;;;2.47;0.80;;;23.50;72.20;;;;;;5043835;28;20096;-61
2023/07/29 09:28:16;;;;;;;1.23;0.80;;;23.60;72.50;;;;;;5042399;28;20032;-61
2023/07/29 09:30:45;;;;;;;1.40;0.95;;;23.60;72.00;;;;;;5041382;28;20068;-61
2023/07/29 09:33:11;;;;;;;1.55;0.77;;;23.70;71.80;;;;;;5033504;28;20116;-61
2023/07/29 09:35:37;;;;;;;1.15;0.95;;;23.80;71.40;;;;;;5038500;28;20212;-61
2023/07/29 09:38:05;;;;;;;1.55;1.00;;;23.80;71.30;;;;;;5043546;28;20416;-61
2023/07/29 09:40:40;;;;;;;1.95;0.85;;;23.80;72.20;;;;;;5036559;28;20104;-61
2023/07/29 09:43:09;;;;;;;1.35;0.88;;;23.90;72.40;;;;;;5037761;28;20504;-61
2023/07/29 09:45:36;;;;;;;2.35;1.17;;;23.90;71.20;;;;;;5031144;28;20025;-62
2023/07/29 09:48:03;;;;;;;1.02;0.93;;;24.00;70.90;;;;;;5017877;28;20126;-61
2023/07/29 09:50:29;;;;;;;1.40;1.00;;;24.00;70.70;;;;;;5034934;28;20029;-62
2023/07/29 09:52:58;;;;;;;1.98;0.90;;;24.10;71.20;;;;;;5031806;28;20045;-62
2023/07/29 09:55:24;;;;;;;1.55;0.90;;;24.20;71.00;;;;;;5031855;28;20099;-63
2023/07/29 09:58:02;;;;;;;1.63;0.90;;;24.20;70.40;;;;;;5038047;28;20501;-61
2023/07/29 10:00:31;;;;;;;0.93;0.90;;;24.30;70.80;;;;;;5042329;28;20033;-62
2023/07/29 10:02:58;;;;;;;2.67;0.90;;;24.30;71.00;;;;;;5042579;28;20048;-61
2023/07/29 10:05:26;;;;;;;1.13;1.00;;;24.50;70.80;;;;;;5035035;28;20531;-62
2023/07/29 10:07:53;;;;;;;1.20;0.93;;;24.50;69.80;;;;;;5035947;28;20550;-61
2023/07/29 10:10:20;;;;;;;1.23;1.13;;;24.50;69.50;;;;;;5039974;28;20470;-61
2023/07/29 10:12:46;;;;;;;1.30;1.20;;;24.60;70.40;;;;;;5042287;28;20605;-61
2023/07/29 10:15:12;;;;;;;1.20;1.08;;;24.60;69.60;;;;;;5032761;28;20025;-62
2023/07/29 10:17:38;;;;;;;2.35;1.30;;;24.60;68.80;;;;;;4936408;28;20383;-61
2023/07/29 10:20:09;;;;;;;1.00;0.90;;;24.60;68.40;;;;;;5042328;28;20029;-62
2023/07/29 10:22:40;;;;;;;1.40;1.08;;;24.60;68.00;;;;;;5034527;28;20114;-61
2023/07/29 10:25:15;;;;;;;1.20;1.10;;;24.60;67.30;;;;;;5037251;28;20505;-61
2023/07/29 10:27:47;;;;;;;1.02;0.90;;;24.50;67.30;;;;;;5040325;28;20499;-61
2023/07/29 10:30:13;;;;;;;1.38;1.00;;;24.50;67.90;;;;;;5042751;28;20318;-60
2023/07/29 10:32:43;;;;;;;1.48;1.00;;;24.60;68.00;;;;;;5043215;28;20055;-61
2023/07/29 10:35:09;;;;;;;1.60;1.20;;;24.60;68.60;;;;;;5042500;28;20456;-62
2023/07/29 10:37:35;;;;;;;1.00;0.95;;;24.70;68.60;;;;;;5038463;28;20052;-62
2023/07/29 10:40:05;;;;;;;1.17;1.08;;;24.90;68.30;;;;;;5047183;28;20025;-61
2023/07/29 10:42:31;;;;;;;1.67;1.27;;;25.00;68.70;;;;;;5040400;28;20029;-62
2023/07/29 10:44:56;;;;;;;1.42;0.95;;;25.20;68.10;;;;;;5037422;28;20037;-61
2023/07/29 10:47:27;;;;;;;1.10;0.85;;;25.40;68.10;;;;;;5043264;28;20025;-62
2023/07/29 10:49:57;;;;;;;1.70;1.20;;;25.50;66.70;;;;;;5039684;28;20414;-61
2023/07/29 10:52:48;;;;;;;1.63;1.15;;;25.70;65.70;;;;;;5038477;28;20044;-61
2023/07/29 10:55:41;;;;;;;1.17;1.00;;;25.90;65.50;;;;;;5036658;28;20541;-62
2023/07/29 10:58:16;;;;;;;1.45;0.98;;;26.00;64.50;;;;;;5044418;28;20449;-62
2023/07/29 11:00:43;;;;;;;1.80;1.23;;;26.10;64.80;;;;;;5041301;28;20029;-61
2023/07/29 11:03:11;;;;;;;1.42;1.20;;;26.20;65.10;;;;;;5045626;28;20542;-61
2023/07/29 11:05:44;;;;;;;1.23;1.13;;;26.30;64.10;;;;;;5042556;28;20148;-62
2023/07/29 11:08:21;;;;;;;1.85;1.33;;;26.40;63.70;;;;;;5048170;28;20540;-62
2023/07/29 11:11:06;;;;;;;1.52;1.27;;;26.50;63.10;;;;;;5050288;28;20091;-62
2023/07/29 11:13:35;;;;;;;1.85;1.25;;;26.60;62.10;;;;;;5045102;28;20048;-61
2023/07/29 11:16:01;;;;;;;1.23;1.10;;;26.70;62.60;;;;;;4951605;28;20025;-62
2023/07/29 11:18:29;;;;;;;1.52;0.95;;;26.80;62.60;;;;;;5043294;28;20176;-62
2023/07/29 11:20:56;;;;;;;1.85;1.17;;;26.90;61.80;;;;;;5021314;28;20025;-61
2023/07/29 11:23:28;;;;;;;4.93;1.30;;;27.00;62.00;;;;;;5045576;28;20488;-62
2023/07/29 11:25:54;;;;;;;1.58;1.23;;;27.20;61.50;;;;;;5050354;28;20163;-61
2023/07/29 11:28:21;;;;;;;1.60;1.30;;;27.30;60.50;;;;;;5040492;28;20383;-61
2023/07/29 11:30:49;;;;;;;1.52;1.10;;;27.40;60.10;;;;;;5041820;28;20082;-61
2023/07/29 11:33:17;;;;;;;4.60;1.33;;;27.50;60.20;;;;;;5034631;28;20104;-61
2023/07/29 11:35:42;;;;;;;2.40;1.27;;;27.70;59.50;;;;;;5039554;28;20182;-61
2023/07/29 11:38:08;;;;;;;3.63;2.15;;;27.70;58.70;;;;;;5044516;28;20108;-62
2023/07/29 11:40:34;;;;;;;1.83;1.30;;;27.90;58.50;;;;;;5040849;28;20060;-63
2023/07/29 11:43:00;;;;;;;1.55;1.45;;;28.00;56.70;;;;;;5045593;28;20088;-62
2023/07/29 11:45:26;;;;;;;1.33;1.23;;;28.00;55.40;;;;;;5040550;28;20033;-61
2023/07/29 11:47:52;;;;;;;2.80;1.30;;;28.00;54.40;;;;;;5040236;28;20021;-62
2023/07/29 11:50:17;;;;;;;1.35;1.25;;;28.00;55.00;;;;;;5051866;28;20032;-60
2023/07/29 11:52:45;;;;;;;1.50;1.35;;;27.90;55.10;;;;;;5050713;28;20436;-61
2023/07/29 11:55:12;;;;;;;1.63;1.20;;;27.90;56.00;;;;;;5044639;28;20099;-60
2023/07/29 11:57:39;;;;;;;3.83;1.33;;;28.00;55.10;;;;;;5039470;28;20025;-61
2023/07/29 12:00:09;;;;;;;2.55;1.50;;;28.00;54.80;;;;;;5027876;28;20032;-62
2023/07/29 12:02:37;;;;;;;1.42;1.33;;;28.10;54.10;;;;;;5050613;28;20055;-61
2023/07/29 12:05:05;;;;;;;2.67;1.38;;;28.10;53.90;;;;;;5042848;28;20025;-61
2023/07/29 12:07:33;;;;;;;1.50;1.40;;;28.20;54.20;;;;;;5041790;28;20028;-61
2023/07/29 12:09:59;;;;;;;1.55;1.25;;;28.20;54.20;;;;;;5046001;28;20040;-61
2023/07/29 12:12:25;;;;;;;1.38;1.27;;;28.20;55.00;;;;;;5041736;28;20701;-63
2023/07/29 12:14:50;;;;;;;1.60;0.93;;;28.30;55.00;;;;;;5046765;28;20025;-61
2023/07/29 12:17:16;;;;;;;1.23;0.70;;;28.40;55.20;;;;;;5037427;28;20036;-62
2023/07/29 12:19:42;;;;;;;0.82;0.80;;;28.50;54.70;;;;;;5039320;28;20024;-61
2023/07/29 12:22:10;;;;;;;1.98;0.90;;;28.50;54.20;;;;;;5041466;28;20070;-62
2023/07/29 12:24:38;;;;;;;1.75;0.70;;;28.50;54.30;;;;;;5047431;28;20059;-61
2023/07/29 12:27:05;;;;;;;2.55;0.70;;;28.40;54.60;;;;;;5043038;28;20520;-62
2023/07/29 12:29:31;;;;;;;4.60;0.70;;;28.30;54.60;;;;;;5045428;28;20025;-61
2023/07/29 12:32:01;;;;;;;0.95;0.63;;;28.30;55.10;;;;;;5041712;28;20036;-62
2023/07/29 12:34:28;;;;;;;0.60;0.60;;;28.30;55.10;;;;;;5038380;28;20029;-63
2023/07/29 12:36:56;;;;;;;2.35;0.80;;;28.40;55.80;;;;;;5039210;28;20029;-61
2023/07/29 12:39:23;;;;;;;0.95;0.80;;;28.50;55.60;;;;;;5039117;28;20021;-61
2023/07/29 12:41:50;;;;;;;2.05;1.33;;;28.60;55.00;;;;;;5041013;28;20035;-62
2023/07/29 12:44:16;;;;;;;2.47;1.30;;;28.60;53.80;;;;;;5046923;28;20038;-62